createdAt,value
2019-01-02T00:00:08.163Z,77.55
2019-01-02T00:01:15.953Z,77.87
2019-01-02T00:02:18.518Z,77.87
2019-01-02T00:03:24.693Z,77.73
2019-01-02T00:04:30.979Z,77.89
2019-01-02T00:05:41.477Z,77.53
2019-01-02T00:06:44.408Z,77.37
2019-01-02T00:07:47.752Z,77.62
2019-01-02T00:08:50.577Z,77.25
2019-01-02T00:09:53.391Z,76.93
2019-01-02T00:11:02.883Z,76.84
2019-01-02T00:12:05.738Z,76.60
2019-01-02T00:13:09.294Z,76.42
2019-01-02T00:14:12.540Z,76.13
2019-01-02T00:15:15.368Z,76.13
2019-01-02T00:16:18.442Z,76.06
2019-01-02T00:17:23.641Z,75.71
2019-01-02T00:18:30.463Z,75.49
2019-01-02T00:19:33.080Z,75.62
2019-01-02T00:20:36.386Z,75.62
2019-01-02T00:21:39.163Z,75.68
2019-01-02T00:22:43.386Z,75.68
2019-01-02T00:23:49.448Z,75.98
2019-01-02T00:24:52.943Z,76.24
2019-01-02T00:25:55.870Z,76.24
2019-01-02T00:27:02.229Z,76.18
2019-01-02T00:28:07.466Z,75.55
2019-01-02T00:29:10.327Z,75.81
2019-01-02T00:30:13.243Z,76.10
2019-01-02T00:31:18.153Z,76.10
2019-01-02T00:32:21.017Z,76.19
2019-01-02T00:33:24.281Z,75.61
2019-01-02T00:34:27.590Z,75.61
2019-01-02T00:35:30.814Z,75.93
2019-01-02T00:36:34.016Z,75.93
2019-01-02T00:37:37.711Z,76.03
2019-01-02T00:38:40.705Z,76.44
2019-01-02T00:39:44.441Z,76.14
2019-01-02T00:40:47.597Z,76.50
2019-01-02T00:41:50.456Z,76.37
2019-01-02T00:42:56.117Z,76.44
2019-01-02T00:43:59.665Z,77.03
2019-01-02T00:45:02.506Z,76.56
2019-01-02T00:46:05.940Z,76.40
2019-01-02T00:47:09.036Z,76.40
2019-01-02T00:48:12.285Z,76.25
2019-01-02T00:49:18.433Z,76.66
2019-01-02T00:50:24.883Z,76.53
2019-01-02T00:51:27.747Z,76.49
2019-01-02T00:52:31.612Z,76.76
2019-01-02T00:53:34.510Z,76.41
2019-01-02T00:54:37.434Z,76.40
2019-01-02T00:55:40.545Z,76.45
2019-01-02T00:56:43.815Z,76.32
2019-01-02T00:57:47.228Z,76.32
2019-01-02T00:58:51.910Z,76.48
2019-01-02T00:59:54.804Z,76.77
2019-01-02T01:00:57.998Z,76.77
2019-01-02T01:02:01.269Z,76.81
2019-01-02T01:03:04.494Z,76.79
2019-01-02T01:04:08.056Z,76.92
2019-01-02T01:05:12.948Z,76.95
2019-01-02T01:06:16.453Z,76.95
2019-01-02T01:07:19.408Z,76.86
2019-01-02T01:08:22.225Z,77.28
2019-01-02T01:09:25.453Z,77.28
2019-01-02T01:10:28.216Z,76.77
2019-01-02T01:11:31.495Z,76.90
2019-01-02T01:12:34.752Z,76.91
2019-01-02T01:13:37.728Z,76.85
2019-01-02T01:14:41.000Z,76.83
2019-01-02T01:15:44.110Z,76.66
2019-01-02T01:16:47.009Z,76.66
2019-01-02T01:17:50.960Z,76.74
2019-01-02T01:18:53.876Z,76.50
2019-01-02T01:19:56.707Z,76.89
2019-01-02T01:21:00.169Z,76.87
2019-01-02T01:22:03.092Z,76.69
2019-01-02T01:23:06.004Z,76.93
2019-01-02T01:24:09.574Z,76.59
2019-01-02T01:25:12.515Z,76.59
2019-01-02T01:26:15.889Z,76.77
2019-01-02T01:27:19.126Z,77.04
2019-01-02T01:28:22.014Z,77.04
2019-01-02T01:29:25.016Z,77.36
2019-01-02T01:30:28.532Z,77.11
2019-01-02T01:31:31.474Z,77.11
2019-01-02T01:32:34.392Z,77.50
2019-01-02T01:33:37.300Z,77.21
2019-01-02T01:34:40.447Z,77.21
2019-01-02T01:35:43.272Z,77.46
2019-01-02T01:36:46.496Z,77.71
2019-01-02T01:37:49.786Z,77.25
2019-01-02T01:38:53.193Z,77.25
2019-01-02T01:39:56.039Z,77.45
2019-01-02T01:40:59.328Z,77.54
2019-01-02T01:42:02.292Z,77.07
2019-01-02T01:43:05.468Z,77.07
2019-01-02T01:44:08.792Z,76.98
2019-01-02T01:45:11.663Z,76.85
2019-01-02T01:46:17.405Z,76.85
2019-01-02T01:47:20.667Z,77.04
2019-01-02T01:48:26.466Z,76.78
2019-01-02T01:49:29.709Z,76.88
2019-01-02T01:50:32.626Z,76.88
2019-01-02T01:51:35.792Z,76.82
2019-01-02T01:52:38.642Z,76.90
2019-01-02T01:53:41.537Z,77.31
2019-01-02T01:54:44.734Z,77.31
2019-01-02T01:55:47.898Z,77.13
2019-01-02T01:56:50.736Z,76.88
2019-01-02T01:57:53.756Z,77.32
2019-01-02T01:58:56.569Z,77.32
2019-01-02T01:59:59.459Z,77.13
2019-01-02T02:01:03.514Z,77.00
2019-01-02T02:02:07.348Z,77.22
2019-01-02T02:03:10.528Z,76.57
2019-01-02T02:04:13.812Z,77.26
2019-01-02T02:05:16.707Z,77.26
2019-01-02T02:06:19.467Z,77.48
2019-01-02T02:07:22.303Z,77.48
2019-01-02T02:08:25.425Z,77.78
2019-01-02T02:09:28.372Z,77.84
2019-01-02T02:10:31.349Z,77.84
2019-01-02T02:11:34.514Z,78.07
2019-01-02T02:12:37.404Z,78.07
2019-01-02T02:13:40.292Z,77.58
2019-01-02T02:14:43.619Z,77.58
2019-01-02T02:15:46.737Z,77.80
2019-01-02T02:16:49.602Z,76.95
2019-01-02T02:17:52.723Z,76.79
2019-01-02T02:18:55.650Z,77.32
2019-01-02T02:19:58.413Z,77.32
2019-01-02T02:21:01.952Z,76.75
2019-01-02T02:22:04.827Z,76.89
2019-01-02T02:23:07.673Z,76.41
2019-01-02T02:24:10.980Z,76.41
2019-01-02T02:25:14.061Z,76.76
2019-01-02T02:26:16.867Z,76.89
2019-01-02T02:27:20.340Z,75.95
2019-01-02T02:28:23.253Z,76.03
2019-01-02T02:29:26.555Z,76.18
2019-01-02T02:30:29.777Z,76.18
2019-01-02T02:31:32.588Z,75.97
2019-01-02T02:32:35.735Z,75.97
2019-01-02T02:33:38.855Z,75.85
2019-01-02T02:34:42.547Z,75.64
2019-01-02T02:35:45.503Z,75.79
2019-01-02T02:36:48.786Z,75.58
2019-01-02T02:37:51.938Z,75.58
2019-01-02T02:38:54.944Z,75.39
2019-01-02T02:39:59.688Z,75.09
2019-01-02T02:41:03.185Z,75.09
2019-01-02T02:42:06.258Z,75.16
2019-01-02T02:43:09.358Z,75.24
2019-01-02T02:44:12.134Z,75.52
2019-01-02T02:45:15.763Z,75.60
2019-01-02T02:46:19.366Z,75.54
2019-01-02T02:47:22.258Z,74.97
2019-01-02T02:48:25.412Z,74.97
2019-01-02T02:49:28.619Z,75.46
2019-01-02T02:50:31.468Z,75.76
2019-01-02T02:51:36.871Z,75.76
2019-01-02T02:52:39.510Z,75.50
2019-01-02T02:53:42.307Z,75.59
2019-01-02T02:54:46.842Z,75.75
2019-01-02T02:55:50.938Z,75.94
2019-01-02T02:56:54.624Z,76.28
2019-01-02T02:57:58.094Z,76.28
2019-01-02T02:59:00.972Z,75.85
2019-01-02T03:00:04.043Z,76.02
2019-01-02T03:01:06.971Z,75.37
2019-01-02T03:02:10.114Z,75.57
2019-01-02T03:03:13.274Z,75.46
2019-01-02T03:04:16.545Z,75.39
2019-01-02T03:05:19.716Z,75.39
2019-01-02T03:06:24.087Z,75.54
2019-01-02T03:07:27.237Z,75.43
2019-01-02T03:08:30.639Z,75.25
2019-01-02T03:09:34.301Z,75.27
2019-01-02T03:10:37.495Z,75.44
2019-01-02T03:11:40.671Z,75.41
2019-01-02T03:12:46.038Z,75.80
2019-01-02T03:13:49.268Z,75.47
2019-01-02T03:14:52.379Z,75.62
2019-01-02T03:15:55.400Z,75.56
2019-01-02T03:17:01.889Z,75.56
2019-01-02T03:18:04.980Z,75.62
2019-01-02T03:19:07.918Z,75.71
2019-01-02T03:20:11.079Z,75.71
2019-01-02T03:21:14.197Z,75.77
2019-01-02T03:22:17.044Z,75.78
2019-01-02T03:23:20.472Z,75.82
2019-01-02T03:24:23.382Z,75.54
2019-01-02T03:25:26.253Z,75.54
2019-01-02T03:26:29.387Z,75.93
2019-01-02T03:27:32.159Z,75.94
2019-01-02T03:28:35.742Z,75.61
2019-01-02T03:29:42.347Z,75.99
2019-01-02T03:30:48.244Z,75.99
2019-01-02T03:31:51.572Z,75.98
2019-01-02T03:32:54.824Z,76.37
2019-01-02T03:33:57.949Z,76.63
2019-01-02T03:35:00.721Z,76.42
2019-01-02T03:36:03.868Z,76.31
2019-01-02T03:37:06.624Z,76.66
2019-01-02T03:38:09.536Z,76.87
2019-01-02T03:39:12.761Z,76.64
2019-01-02T03:40:15.879Z,77.00
2019-01-02T03:41:18.973Z,76.75
2019-01-02T03:42:23.261Z,76.56
2019-01-02T03:43:26.037Z,77.01
2019-01-02T03:44:28.844Z,77.01
2019-01-02T03:45:31.765Z,77.08
2019-01-02T03:46:34.723Z,77.00
2019-01-02T03:47:37.626Z,77.00
2019-01-02T03:48:40.717Z,77.40
2019-01-02T03:49:43.677Z,77.01
2019-01-02T03:50:46.664Z,77.71
2019-01-02T03:51:49.515Z,77.43
2019-01-02T03:52:52.909Z,77.35
2019-01-02T03:53:57.887Z,77.60
2019-01-02T03:55:01.205Z,77.60
2019-01-02T03:56:04.188Z,78.07
2019-01-02T03:57:07.338Z,78.07
2019-01-02T03:58:10.111Z,78.20
2019-01-02T03:59:13.021Z,78.20
2019-01-02T04:00:16.045Z,78.86
2019-01-02T04:01:19.446Z,79.12
2019-01-02T04:02:22.354Z,79.12
2019-01-02T04:03:25.138Z,79.30
2019-01-02T04:04:28.251Z,79.69
2019-01-02T04:05:31.066Z,80.32
2019-01-02T04:06:33.848Z,80.24
2019-01-02T04:07:37.005Z,80.49
2019-01-02T04:08:40.726Z,81.04
2019-01-02T04:09:43.577Z,80.89
2019-01-02T04:10:46.518Z,81.20
2019-01-02T04:11:49.334Z,82.14
2019-01-02T04:12:52.159Z,82.29
2019-01-02T04:13:55.496Z,82.29
2019-01-02T04:14:58.317Z,84.91
2019-01-02T04:16:01.222Z,85.22
2019-01-02T04:17:04.029Z,86.10
2019-01-02T04:18:06.786Z,86.78
2019-01-02T04:19:09.567Z,86.92
2019-01-02T04:20:12.897Z,86.59
2019-01-02T04:21:15.754Z,87.34
2019-01-02T04:22:18.522Z,87.49
2019-01-02T04:23:21.321Z,88.29
2019-01-02T04:24:24.695Z,88.29
2019-01-02T04:25:27.473Z,88.55
2019-01-02T04:26:30.625Z,88.55
2019-01-02T04:27:34.058Z,88.71
2019-01-02T04:28:37.059Z,88.72
2019-01-02T04:29:39.843Z,88.92
2019-01-02T04:30:42.735Z,89.14
2019-01-02T04:31:45.518Z,88.79
2019-01-02T04:32:48.627Z,88.33
2019-01-02T04:33:53.746Z,88.86
2019-01-02T04:34:57.387Z,88.86
2019-01-02T04:36:00.327Z,88.81
2019-01-02T04:37:03.400Z,88.53
2019-01-02T04:38:06.178Z,88.43
2019-01-02T04:39:09.760Z,88.44
2019-01-02T04:40:13.153Z,88.32
2019-01-02T04:41:16.059Z,88.43
2019-01-02T04:42:18.946Z,88.50
2019-01-02T04:43:23.790Z,87.56
2019-01-02T04:44:26.778Z,87.75
2019-01-02T04:45:29.987Z,87.94
2019-01-02T04:46:32.891Z,87.64
2019-01-02T04:47:35.779Z,87.67
2019-01-02T04:48:38.649Z,87.61
2019-01-02T04:49:41.442Z,87.19
2019-01-02T04:50:44.341Z,87.19
2019-01-02T04:51:48.251Z,87.19
2019-01-02T04:52:51.070Z,87.40
2019-01-02T04:53:53.954Z,87.11
2019-01-02T04:54:57.109Z,87.09
2019-01-02T04:56:00.307Z,86.61
2019-01-02T04:57:03.854Z,86.28
2019-01-02T04:58:10.089Z,86.88
2019-01-02T04:59:12.920Z,86.50
2019-01-02T05:00:15.800Z,86.66
2019-01-02T05:01:18.813Z,86.66
2019-01-02T05:02:21.747Z,85.88
2019-01-02T05:03:25.159Z,85.88
2019-01-02T05:04:28.475Z,85.25
2019-01-02T05:05:31.698Z,85.13
2019-01-02T05:06:34.635Z,85.13
2019-01-02T05:07:37.578Z,85.44
2019-01-02T05:08:40.637Z,85.27
2019-01-02T05:09:43.896Z,84.76
2019-01-02T05:10:47.343Z,84.76
2019-01-02T05:11:50.118Z,84.63
2019-01-02T05:12:53.067Z,84.71
2019-01-02T05:13:56.035Z,84.97
2019-01-02T05:14:58.833Z,84.94
2019-01-02T05:16:01.614Z,84.99
2019-01-02T05:17:04.910Z,85.01
2019-01-02T05:18:07.766Z,85.01
2019-01-02T05:19:10.814Z,84.36
2019-01-02T05:20:13.593Z,84.18
2019-01-02T05:21:16.375Z,84.24
2019-01-02T05:22:19.670Z,84.71
2019-01-02T05:23:22.493Z,84.45
2019-01-02T05:24:25.325Z,84.31
2019-01-02T05:25:28.235Z,83.99
2019-01-02T05:26:31.024Z,83.98
2019-01-02T05:27:33.957Z,83.98
2019-01-02T05:28:37.347Z,84.46
2019-01-02T05:29:40.242Z,84.24
2019-01-02T05:30:43.468Z,84.36
2019-01-02T05:31:46.597Z,84.05
2019-01-02T05:32:49.569Z,84.17
2019-01-02T05:33:52.456Z,83.99
2019-01-02T05:34:55.682Z,83.99
2019-01-02T05:35:58.562Z,84.19
2019-01-02T05:37:01.591Z,84.19
2019-01-02T05:38:07.894Z,84.26
2019-01-02T05:39:10.750Z,84.71
2019-01-02T05:40:16.030Z,84.85
2019-01-02T05:41:20.759Z,84.75
2019-01-02T05:42:23.784Z,84.84
2019-01-02T05:43:26.667Z,84.49
2019-01-02T05:44:29.480Z,84.68
2019-01-02T05:45:32.385Z,84.48
2019-01-02T05:46:35.131Z,84.66
2019-01-02T05:47:38.399Z,84.36
2019-01-02T05:48:41.874Z,84.36
2019-01-02T05:49:44.771Z,84.71
2019-01-02T05:50:47.696Z,84.74
2019-01-02T05:51:50.705Z,84.74
2019-01-02T05:52:53.539Z,84.37
2019-01-02T05:53:56.779Z,84.43
2019-01-02T05:54:59.584Z,84.43
2019-01-02T05:56:02.411Z,84.52
2019-01-02T05:57:06.126Z,84.57
2019-01-02T05:58:11.779Z,84.30
2019-01-02T05:59:14.917Z,84.18
2019-01-02T06:00:17.853Z,84.33
2019-01-02T06:01:21.210Z,84.61
2019-01-02T06:02:24.226Z,84.25
2019-01-02T06:03:27.040Z,84.34
2019-01-02T06:04:29.952Z,84.34
2019-01-02T06:05:33.197Z,84.49
2019-01-02T06:06:36.188Z,84.15
2019-01-02T06:07:41.088Z,84.57
2019-01-02T06:08:43.533Z,84.56
2019-01-02T06:09:46.536Z,84.56
2019-01-02T06:10:49.438Z,83.96
2019-01-02T06:11:54.977Z,84.07
2019-01-02T06:12:57.941Z,83.73
2019-01-02T06:14:00.781Z,83.95
2019-01-02T06:15:03.599Z,83.88
2019-01-02T06:16:09.437Z,83.61
2019-01-02T06:17:12.206Z,83.38
2019-01-02T06:18:15.558Z,83.00
2019-01-02T06:19:18.474Z,83.25
2019-01-02T06:20:21.434Z,82.88
2019-01-02T06:21:24.239Z,82.61
2019-01-02T06:22:27.013Z,82.61
2019-01-02T06:23:29.940Z,83.07
2019-01-02T06:24:33.046Z,82.27
2019-01-02T06:25:36.117Z,82.66
2019-01-02T06:26:38.988Z,82.59
2019-01-02T06:27:41.919Z,83.11
2019-01-02T06:28:44.926Z,82.75
2019-01-02T06:29:48.469Z,82.83
2019-01-02T06:44:29.334Z,82.52
2019-01-02T06:45:32.310Z,82.30
2019-01-02T06:46:35.392Z,82.20
2019-01-02T06:47:38.306Z,82.71
2019-01-02T06:48:41.094Z,82.36
2019-01-02T06:49:44.316Z,82.36
2019-01-02T06:50:47.142Z,82.67
2019-01-02T06:51:50.110Z,82.96
2019-01-02T06:52:53.095Z,82.86
2019-01-02T06:54:03.582Z,82.87
2019-01-02T06:55:06.871Z,82.95
2019-01-02T06:56:09.739Z,82.54
2019-01-02T06:57:14.844Z,82.94
2019-01-02T06:58:18.782Z,82.65
2019-01-02T06:59:21.667Z,82.84
2019-01-02T07:00:24.574Z,82.74
2019-01-02T07:01:27.615Z,82.81
2019-01-02T07:02:30.501Z,82.65
2019-01-02T07:03:33.401Z,82.79
2019-01-02T07:04:36.397Z,82.37
2019-01-02T07:05:39.332Z,82.37
2019-01-02T07:06:42.214Z,82.86
2019-01-02T07:07:45.395Z,82.53
2019-01-02T07:08:48.277Z,82.53
2019-01-02T07:09:51.127Z,82.71
2019-01-02T07:10:53.920Z,82.81
2019-01-02T07:11:56.722Z,82.63
2019-01-02T07:12:59.769Z,82.63
2019-01-02T07:14:03.040Z,81.85
2019-01-02T07:15:05.854Z,82.12
2019-01-02T07:16:08.780Z,82.12
2019-01-02T07:17:11.548Z,81.74
2019-01-02T07:18:14.669Z,81.70
2019-01-02T07:19:17.592Z,81.70
2019-01-02T07:20:20.879Z,81.85
2019-01-02T07:21:23.717Z,81.64
2019-01-02T07:22:27.191Z,81.97
2019-01-02T07:23:29.978Z,81.82
2019-01-02T07:24:32.901Z,81.67
2019-01-02T07:25:35.675Z,81.76
2019-01-02T07:26:38.753Z,81.37
2019-01-02T07:27:41.565Z,81.39
2019-01-02T07:28:53.139Z,81.50
2019-01-02T07:30:04.842Z,81.56
2019-01-02T07:31:07.673Z,81.34
2019-01-02T07:32:10.455Z,81.64
2019-01-02T07:33:14.773Z,81.32
2019-01-02T07:34:17.551Z,81.58
2019-01-02T07:35:20.476Z,81.15
2019-01-02T07:36:23.341Z,81.26
2019-01-02T07:37:27.000Z,80.93
2019-01-02T07:38:30.353Z,81.16
2019-01-02T07:39:33.495Z,81.16
2019-01-02T07:40:36.342Z,81.08
2019-01-02T07:41:39.199Z,81.08
2019-01-02T07:42:44.272Z,80.88
2019-01-02T07:43:47.136Z,80.58
2019-01-02T07:44:50.145Z,80.34
2019-01-02T07:45:53.254Z,80.34
2019-01-02T07:46:56.032Z,80.30
2019-01-02T07:47:58.825Z,79.63
2019-01-02T07:49:01.675Z,79.97
2019-01-02T07:50:04.657Z,79.97
2019-01-02T07:51:07.565Z,79.71
2019-01-02T07:52:10.734Z,79.50
2019-01-02T07:53:13.497Z,79.45
2019-01-02T07:54:16.257Z,79.33
2019-01-02T07:55:19.042Z,79.22
2019-01-02T07:56:22.590Z,79.34
2019-01-02T07:57:26.631Z,79.47
2019-01-02T07:58:32.550Z,79.42
2019-01-02T07:59:35.594Z,79.23
2019-01-02T08:00:40.633Z,79.60
2019-01-02T08:01:43.523Z,79.34
2019-01-02T08:02:48.020Z,79.32
2019-01-02T08:03:57.239Z,79.06
2019-01-02T08:05:00.248Z,79.08
2019-01-02T08:06:03.069Z,79.12
2019-01-02T08:07:05.867Z,78.94
2019-01-02T08:08:08.770Z,78.80
2019-01-02T08:09:11.603Z,79.07
2019-01-02T08:10:18.070Z,78.77
2019-01-02T08:11:20.965Z,78.77
2019-01-02T08:12:23.891Z,78.84
2019-01-02T08:13:26.820Z,78.46
2019-01-02T08:14:30.076Z,78.57
2019-01-02T08:15:33.103Z,78.39
2019-01-02T08:16:36.261Z,78.62
2019-01-02T08:17:39.046Z,78.36
2019-01-02T08:18:41.980Z,78.13
2019-01-02T08:19:44.759Z,78.45
2019-01-02T08:20:47.600Z,78.54
2019-01-02T08:21:50.401Z,78.54
2019-01-02T08:22:53.481Z,78.60
2019-01-02T08:23:56.461Z,78.90
2019-01-02T08:24:59.327Z,78.69
2019-01-02T08:26:02.102Z,78.24
2019-01-02T08:27:07.410Z,78.83
2019-01-02T08:28:10.272Z,78.83
2019-01-02T08:29:13.377Z,78.81
2019-01-02T08:30:16.140Z,78.97
2019-01-02T08:31:19.463Z,78.69
2019-01-02T08:32:22.254Z,78.63
2019-01-02T08:33:25.045Z,78.60
2019-01-02T08:34:27.998Z,78.84
2019-01-02T08:35:31.198Z,78.84
2019-01-02T08:36:34.043Z,78.43
2019-01-02T08:37:38.747Z,78.43
2019-01-02T08:38:41.514Z,78.57
2019-01-02T08:39:47.714Z,78.57
2019-01-02T08:40:51.082Z,78.37
2019-01-02T08:41:54.254Z,78.37
2019-01-02T08:43:00.094Z,78.10
2019-01-02T08:44:02.915Z,78.00
2019-01-02T08:45:06.010Z,77.91
2019-01-02T08:46:08.882Z,78.10
2019-01-02T08:47:11.806Z,77.74
2019-01-02T08:48:15.221Z,77.85
2019-01-02T08:49:18.186Z,77.24
2019-01-02T08:50:25.255Z,77.24
2019-01-02T08:51:26.105Z,77.54
2019-01-02T08:52:32.261Z,77.20
2019-01-02T08:53:35.469Z,77.54
2019-01-02T08:54:39.801Z,77.69
2019-01-02T08:55:42.609Z,77.71
2019-01-02T08:56:48.536Z,77.46
2019-01-02T08:57:51.332Z,77.46
2019-01-02T08:58:54.237Z,77.34
2019-01-02T08:59:57.523Z,77.05
2019-01-02T09:01:00.713Z,76.98
2019-01-02T09:02:05.354Z,76.98
2019-01-02T09:03:08.710Z,76.25
2019-01-02T09:04:11.657Z,76.25
2019-01-02T09:05:14.478Z,76.68
2019-01-02T09:06:21.966Z,76.68
2019-01-02T09:07:24.872Z,77.08
2019-01-02T09:08:27.728Z,77.13
2019-01-02T09:09:30.523Z,76.85
2019-01-02T09:10:33.801Z,77.30
2019-01-02T09:11:36.581Z,77.35
2019-01-02T09:12:41.658Z,77.73
2019-01-02T09:13:44.759Z,78.09
2019-01-02T09:14:47.678Z,77.94
2019-01-02T09:15:50.893Z,78.24
2019-01-02T09:16:54.195Z,78.29
2019-01-02T09:17:57.084Z,77.93
2019-01-02T09:19:03.022Z,78.17
2019-01-02T09:20:06.287Z,78.17
2019-01-02T09:21:09.149Z,78.00
2019-01-02T09:22:14.861Z,78.09
2019-01-02T09:23:18.296Z,77.62
2019-01-02T09:24:21.629Z,77.48
2019-01-02T09:25:24.526Z,77.54
2019-01-02T09:26:27.796Z,77.79
2019-01-02T09:27:30.639Z,77.16
2019-01-02T09:28:41.137Z,77.16
2019-01-02T09:29:44.035Z,76.71
2019-01-02T09:30:46.909Z,76.71
2019-01-02T09:31:52.145Z,76.86
2019-01-02T09:32:55.781Z,76.87
2019-01-02T09:33:59.226Z,76.90
2019-01-02T09:35:04.073Z,77.07
2019-01-02T09:36:18.931Z,76.89
2019-01-02T09:37:21.698Z,76.91
2019-01-02T09:38:24.484Z,76.91
2019-01-02T09:39:27.702Z,77.11
2019-01-02T09:40:30.737Z,77.20
2019-01-02T09:41:33.563Z,77.24
2019-01-02T09:42:38.136Z,77.36
2019-01-02T09:43:41.064Z,77.35
2019-01-02T09:44:43.984Z,77.71
2019-01-02T09:45:47.071Z,77.86
2019-01-02T09:46:54.926Z,77.87
2019-01-02T09:48:00.338Z,77.87
2019-01-02T09:49:03.314Z,78.21
2019-01-02T09:50:06.339Z,78.25
2019-01-02T09:51:09.319Z,78.26
2019-01-02T09:52:12.518Z,78.26
2019-01-02T09:53:19.931Z,78.31
2019-01-02T09:54:23.271Z,78.31
2019-01-02T09:55:26.486Z,78.31
2019-01-02T09:56:29.336Z,78.40
2019-01-02T09:57:32.212Z,78.40
2019-01-02T09:58:35.370Z,78.05
2019-01-02T09:59:44.189Z,77.69
2019-01-02T10:00:50.240Z,77.69
2019-01-02T10:01:53.159Z,76.54
2019-01-02T10:02:56.012Z,76.15
2019-01-02T10:03:59.013Z,75.53
2019-01-02T10:05:02.173Z,75.92
2019-01-02T10:06:05.184Z,75.66
2019-01-02T10:07:08.078Z,75.52
2019-01-02T10:08:10.887Z,75.52
2019-01-02T10:09:17.918Z,74.91
2019-01-02T10:10:22.400Z,74.91
2019-01-02T10:11:25.770Z,75.08
2019-01-02T10:12:28.613Z,74.58
2019-01-02T10:13:31.812Z,74.50
2019-01-02T10:14:34.755Z,74.37
2019-01-02T10:15:37.535Z,74.75
2019-01-02T10:16:40.473Z,74.74
2019-01-02T10:17:43.651Z,73.58
2019-01-02T10:18:49.574Z,74.07
2019-01-02T10:19:52.412Z,74.07
2019-01-02T10:20:55.855Z,74.07
2019-01-02T10:21:58.800Z,72.84
2019-01-02T10:23:01.619Z,72.56
2019-01-02T10:24:11.331Z,71.37
2019-01-02T10:25:14.170Z,69.95
2019-01-02T10:26:17.031Z,69.95
2019-01-02T10:27:19.974Z,69.55
2019-01-02T10:28:22.855Z,69.38
2019-01-02T10:29:26.570Z,69.22
2019-01-02T10:30:29.673Z,69.22
2019-01-02T10:31:35.194Z,67.13
2019-01-02T10:32:37.989Z,68.96
2019-01-02T10:33:41.092Z,69.48
2019-01-02T10:34:43.855Z,70.00
2019-01-02T10:35:48.969Z,69.88
2019-01-02T10:37:15.341Z,69.38
2019-01-02T10:38:18.242Z,69.38
2019-01-02T10:39:21.086Z,69.40
2019-01-02T10:40:24.089Z,68.96
2019-01-02T10:41:31.191Z,68.52
2019-01-02T10:42:34.020Z,68.89
2019-01-02T10:43:37.400Z,68.89
2019-01-02T10:44:40.294Z,68.77
2019-01-02T10:45:43.200Z,68.42
2019-01-02T10:46:46.037Z,68.57
2019-01-02T10:47:49.116Z,68.57
2019-01-02T10:48:52.370Z,68.49
2019-01-02T10:49:55.217Z,66.12
2019-01-02T10:50:58.472Z,64.53
2019-01-02T10:52:01.256Z,63.42
2019-01-02T10:53:06.252Z,61.52
2019-01-02T10:54:10.174Z,61.05
2019-01-02T10:55:18.035Z,60.91
2019-01-02T10:56:20.839Z,60.26
2019-01-02T10:57:24.452Z,61.02
2019-01-02T10:58:27.685Z,61.02
2019-01-02T10:59:30.560Z,60.01
2019-01-02T11:00:33.417Z,59.53
2019-01-02T11:01:36.638Z,60.37
2019-01-02T11:02:42.162Z,60.62
2019-01-02T11:03:49.109Z,61.07
2019-01-02T11:04:51.703Z,62.07
2019-01-02T11:05:54.639Z,62.58
2019-01-02T11:06:57.518Z,62.71
2019-01-02T11:08:00.607Z,62.34
2019-01-02T11:09:04.415Z,62.34
2019-01-02T11:10:07.568Z,62.35
2019-01-02T11:11:10.406Z,62.35
2019-01-02T11:12:13.271Z,62.52
2019-01-02T11:13:16.482Z,62.85
2019-01-02T11:14:22.767Z,62.85
2019-01-02T11:15:26.699Z,63.11
2019-01-02T11:16:29.725Z,63.00
2019-01-02T11:17:32.815Z,63.06
2019-01-02T11:18:37.917Z,62.86
2019-01-02T11:19:40.773Z,62.54
2019-01-02T11:20:43.879Z,62.00
2019-01-02T11:21:46.679Z,62.00
2019-01-02T11:22:49.623Z,62.11
2019-01-02T11:24:02.239Z,62.11
2019-01-02T11:25:07.149Z,62.19
2019-01-02T11:26:10.621Z,62.19
2019-01-02T11:27:13.793Z,61.82
2019-01-02T11:28:16.817Z,61.63
2019-01-02T11:29:20.573Z,61.57
2019-01-02T11:43:08.097Z,56.10
2019-01-02T11:44:10.940Z,55.65
2019-01-02T11:45:14.332Z,55.78
2019-01-02T11:46:17.630Z,56.21
2019-01-02T11:47:20.518Z,54.46
2019-01-02T11:48:23.837Z,53.30
2019-01-02T11:49:26.849Z,53.32
2019-01-02T11:50:29.911Z,53.32
2019-01-02T11:51:32.806Z,52.55
2019-01-02T11:52:35.767Z,52.55
2019-01-02T11:53:38.797Z,52.66
2019-01-02T11:54:42.403Z,52.36
2019-01-02T11:55:45.472Z,53.34
2019-01-02T11:56:51.302Z,53.34
2019-01-02T11:57:54.703Z,53.99
2019-01-02T11:59:00.752Z,54.74
2019-01-02T12:00:04.409Z,55.17
2019-01-02T12:01:10.216Z,54.19
2019-01-02T12:02:13.195Z,53.79
2019-01-02T12:03:16.162Z,53.79
2019-01-02T12:04:20.585Z,53.23
2019-01-02T12:05:24.206Z,54.76
2019-01-02T12:06:27.130Z,54.74
2019-01-02T12:07:32.617Z,55.21
2019-01-02T12:08:35.466Z,55.31
2019-01-02T12:09:38.319Z,55.37
2019-01-02T12:10:44.091Z,55.34
2019-01-02T12:11:49.772Z,54.83
2019-01-02T12:12:58.067Z,53.33
2019-01-02T12:14:01.398Z,51.52
2019-01-02T12:15:04.574Z,51.44
2019-01-02T12:16:07.400Z,50.19
2019-01-02T12:17:10.450Z,49.62
2019-01-02T12:18:13.830Z,49.75
2019-01-02T12:19:20.101Z,50.14
2019-01-02T12:20:23.051Z,51.17
2019-01-02T12:21:25.941Z,51.06
2019-01-02T12:22:29.910Z,51.00
2019-01-02T12:23:33.128Z,51.70
2019-01-02T12:24:36.402Z,51.70
2019-01-02T12:25:39.755Z,51.92
2019-01-02T12:26:47.791Z,52.45
2019-01-02T12:27:51.366Z,52.16
2019-01-02T12:28:54.322Z,52.65
2019-01-02T12:29:57.524Z,53.08
2019-01-02T12:31:00.314Z,52.86
2019-01-02T12:32:03.583Z,52.73
2019-01-02T12:33:06.840Z,51.22
2019-01-02T12:34:15.289Z,51.47
2019-01-02T12:35:20.806Z,51.47
2019-01-02T12:36:23.984Z,51.06
2019-01-02T12:37:27.015Z,50.71
2019-01-02T12:38:31.914Z,50.71
2019-01-02T12:39:40.419Z,52.03
2019-01-02T12:40:42.893Z,52.03
2019-01-02T12:41:46.040Z,51.90
2019-01-02T12:42:49.442Z,51.18
2019-01-02T12:43:52.518Z,51.08
2019-01-02T12:44:55.480Z,50.71
2019-01-02T12:45:58.332Z,49.99
2019-01-02T12:47:01.261Z,49.69
2019-01-02T12:48:04.206Z,49.69
2019-01-02T12:49:07.389Z,49.48
2019-01-02T12:50:10.801Z,49.99
2019-01-02T12:51:13.612Z,49.78
2019-01-02T12:52:16.548Z,49.78
2019-01-02T12:53:19.874Z,49.43
2019-01-02T12:54:23.614Z,50.15
2019-01-02T12:55:26.727Z,50.49
2019-01-02T12:56:30.509Z,50.71
2019-01-02T12:57:33.427Z,50.71
2019-01-02T12:58:39.025Z,50.39
2019-01-02T12:59:42.053Z,50.58
2019-01-02T13:00:44.938Z,50.99
2019-01-02T13:01:50.460Z,50.53
2019-01-02T13:02:53.674Z,49.86
2019-01-02T13:04:06.033Z,49.11
2019-01-02T13:05:12.689Z,48.06
2019-01-02T13:06:15.625Z,47.82
2019-01-02T13:07:19.815Z,46.61
2019-01-02T13:08:25.759Z,46.61
2019-01-02T13:11:26.111Z,46.58
2019-01-02T13:12:37.624Z,46.03
2019-01-02T13:13:45.932Z,45.68
2019-01-02T13:14:53.703Z,46.24
2019-01-02T13:15:59.143Z,45.39
2019-01-02T13:17:12.794Z,45.39
2019-01-02T13:18:15.882Z,45.14
2019-01-02T13:19:18.680Z,45.02
2019-01-02T13:20:21.646Z,45.07
2019-01-02T13:21:26.378Z,45.06
2019-01-02T13:22:29.197Z,45.30
2019-01-02T13:23:32.037Z,45.05
2019-01-02T13:24:35.259Z,45.51
2019-01-02T13:25:38.198Z,45.51
2019-01-02T13:26:43.326Z,45.28
2019-01-02T13:27:48.943Z,44.69
2019-01-02T13:28:52.461Z,45.05
2019-01-02T13:29:55.288Z,45.12
2019-01-02T13:30:58.193Z,45.64
2019-01-02T13:32:01.599Z,45.64
2019-01-02T13:33:04.388Z,45.63
2019-01-02T13:34:10.224Z,45.16
2019-01-02T13:35:13.040Z,45.39
2019-01-02T13:36:15.917Z,45.79
2019-01-02T13:37:18.949Z,45.93
2019-01-02T13:38:21.988Z,46.27
2019-01-02T13:39:25.008Z,45.72
2019-01-02T13:40:28.199Z,45.72
2019-01-02T13:41:30.995Z,46.23
2019-01-02T13:42:34.372Z,47.44
2019-01-02T13:43:39.887Z,47.96
2019-01-02T13:44:42.821Z,48.28
2019-01-02T13:45:48.668Z,48.28
2019-01-02T13:47:01.557Z,48.78
2019-01-02T13:48:06.740Z,48.58
2019-01-02T13:49:09.727Z,47.81
2019-01-02T13:50:14.773Z,47.81
2019-01-02T13:51:17.754Z,48.15
2019-01-02T13:52:22.249Z,47.66
2019-01-02T13:53:25.364Z,47.58
2019-01-02T13:54:28.229Z,47.58
2019-01-02T13:55:31.092Z,48.20
2019-01-02T13:56:36.709Z,48.69
2019-01-02T13:57:39.575Z,48.69
2019-01-02T13:58:44.870Z,49.42
2019-01-02T13:59:49.923Z,49.12
2019-01-02T14:00:55.038Z,49.63
2019-01-02T14:02:09.118Z,50.33
2019-01-02T14:03:12.117Z,50.33
2019-01-02T14:04:14.963Z,50.75
2019-01-02T14:05:17.923Z,50.64
2019-01-02T14:06:20.877Z,50.72
2019-01-02T14:07:28.675Z,50.53